sensor_id;sensor_type;location;lat;lon;timestamp;pressure;altitude;pressure_sealevel;temperature;humidity
12757;BME280;31601;48.042;12.240;2023-04-10T00:01:39;96912.28;;;3.10;71.34
12757;BME280;31601;48.042;12.240;2023-04-10T00:04:06;96919.00;;;3.12;71.31
12757;BME280;31601;48.042;12.240;2023-04-10T00:06:33;96916.41;;;3.12;70.96
12757;BME280;31601;48.042;12.240;2023-04-10T00:09:00;96916.03;;;3.05;70.90
12757;BME280;31601;48.042;12.240;2023-04-10T00:11:26;96919.72;;;3.03;70.95
12757;BME280;31601;48.042;12.240;2023-04-10T00:13:53;96917.84;;;2.94;70.67
12757;BME280;31601;48.042;12.240;2023-04-10T00:16:21;96913.72;;;2.91;70.56
12757;BME280;31601;48.042;12.240;2023-04-10T00:18:47;96912.53;;;2.84;70.30
12757;BME280;31601;48.042;12.240;2023-04-10T00:21:14;96898.63;;;2.62;70.37
12757;BME280;31601;48.042;12.240;2023-04-10T00:23:41;96906.88;;;2.56;70.81
12757;BME280;31601;48.042;12.240;2023-04-10T00:26:08;96903.81;;;2.62;70.67
12757;BME280;31601;48.042;12.240;2023-04-10T00:28:34;96908.75;;;2.65;70.80
12757;BME280;31601;48.042;12.240;2023-04-10T00:31:02;96902.16;;;2.73;70.58
12757;BME280;31601;48.042;12.240;2023-04-10T00:33:30;96901.47;;;2.71;70.68
12757;BME280;31601;48.042;12.240;2023-04-10T00:35:57;96902.16;;;2.73;70.36
12757;BME280;31601;48.042;12.240;2023-04-10T00:38:24;96909.25;;;2.71;70.72
12757;BME280;31601;48.042;12.240;2023-04-10T00:40:50;96907.47;;;2.71;70.34
12757;BME280;31601;48.042;12.240;2023-04-10T00:43:17;96898.28;;;2.56;70.49
12757;BME280;31601;48.042;12.240;2023-04-10T00:45:44;96901.34;;;2.61;70.42
12757;BME280;31601;48.042;12.240;2023-04-10T00:48:11;96894.75;;;2.57;70.46
12757;BME280;31601;48.042;12.240;2023-04-10T00:50:39;96901.22;;;2.51;70.83
12757;BME280;31601;48.042;12.240;2023-04-10T00:53:05;96900.88;;;2.44;70.92
12757;BME280;31601;48.042;12.240;2023-04-10T00:55:32;96906.63;;;2.37;70.91
12757;BME280;31601;48.042;12.240;2023-04-10T00:57:58;96901.81;;;2.32;71.21
12757;BME280;31601;48.042;12.240;2023-04-10T01:00:25;96901.81;;;2.32;71.25
12757;BME280;31601;48.042;12.240;2023-04-10T01:02:52;96900.16;;;2.42;70.92
12757;BME280;31601;48.042;12.240;2023-04-10T01:05:19;96908.31;;;2.49;70.90
12757;BME280;31601;48.042;12.240;2023-04-10T01:07:56;96901.47;;;2.48;70.71
12757;BME280;31601;48.042;12.240;2023-04-10T01:10:33;96895.34;;;2.49;70.61
12757;BME280;31601;48.042;12.240;2023-04-10T01:13:07;96897.44;;;2.32;70.71
12757;BME280;31601;48.042;12.240;2023-04-10T01:15:43;96885.53;;;2.30;70.82
12757;BME280;31601;48.042;12.240;2023-04-10T01:18:16;96887.78;;;2.12;71.09
12757;BME280;31601;48.042;12.240;2023-04-10T01:20:44;96888.94;;;2.08;71.49
12757;BME280;31601;48.042;12.240;2023-04-10T01:26:09;96876.91;;;1.95;71.63
12757;BME280;31601;48.042;12.240;2023-04-10T01:28:52;96878.75;;;1.82;72.04
12757;BME280;31601;48.042;12.240;2023-04-10T01:31:27;96885.22;;;1.76;72.08
12757;BME280;31601;48.042;12.240;2023-04-10T01:33:59;96879.50;;;1.60;72.49
12757;BME280;31601;48.042;12.240;2023-04-10T01:36:35;96882.19;;;1.58;72.18
12757;BME280;31601;48.042;12.240;2023-04-10T01:39:03;96894.78;;;1.63;71.91
12757;BME280;31601;48.042;12.240;2023-04-10T01:41:32;96889.25;;;1.56;72.25
12757;BME280;31601;48.042;12.240;2023-04-10T01:44:02;96891.28;;;1.64;71.92
12757;BME280;31601;48.042;12.240;2023-04-10T01:46:29;96884.59;;;1.73;72.00
12757;BME280;31601;48.042;12.240;2023-04-10T01:49:00;96879.59;;;1.83;71.59
12757;BME280;31601;48.042;12.240;2023-04-10T01:51:29;96884.31;;;1.89;71.60
12757;BME280;31601;48.042;12.240;2023-04-10T01:53:57;96875.47;;;1.91;71.53
12757;BME280;31601;48.042;12.240;2023-04-10T01:56:24;96881.56;;;1.79;71.53
12757;BME280;31601;48.042;12.240;2023-04-10T01:58:51;96880.28;;;1.85;71.86
12757;BME280;31601;48.042;12.240;2023-04-10T02:01:19;96879.13;;;1.89;71.41
12757;BME280;31601;48.042;12.240;2023-04-10T02:03:46;96881.66;;;1.77;71.55
12757;BME280;31601;48.042;12.240;2023-04-10T02:06:17;96890.38;;;1.76;71.45
12757;BME280;31601;48.042;12.240;2023-04-10T02:08:52;96885.44;;;1.73;71.53
12757;BME280;31601;48.042;12.240;2023-04-10T02:11:30;96882.41;;;1.79;71.12
12757;BME280;31601;48.042;12.240;2023-04-10T02:14:00;96880.03;;;1.76;71.26
12757;BME280;31601;48.042;12.240;2023-04-10T02:16:31;96882.97;;;1.72;71.22
12757;BME280;31601;48.042;12.240;2023-04-10T02:18:59;96878.59;;;1.72;71.02
12757;BME280;31601;48.042;12.240;2023-04-10T02:21:26;96879.19;;;1.76;71.25
12757;BME280;31601;48.042;12.240;2023-04-10T02:23:56;96878.16;;;1.78;70.97
12757;BME280;31601;48.042;12.240;2023-04-10T02:26:22;96881.78;;;1.76;70.86
12757;BME280;31601;48.042;12.240;2023-04-10T02:28:48;96883.66;;;1.74;70.74
12757;BME280;31601;48.042;12.240;2023-04-10T02:31:15;96877.34;;;1.78;70.80
12757;BME280;31601;48.042;12.240;2023-04-10T02:33:43;96875.19;;;1.72;70.81
12757;BME280;31601;48.042;12.240;2023-04-10T02:36:09;96886.47;;;1.71;70.90
12757;BME280;31601;48.042;12.240;2023-04-10T02:38:35;96874.97;;;1.75;70.90
12757;BME280;31601;48.042;12.240;2023-04-10T02:41:02;96879.31;;;1.74;70.87
12757;BME280;31601;48.042;12.240;2023-04-10T02:43:28;96871.44;;;1.76;70.61
12757;BME280;31601;48.042;12.240;2023-04-10T02:45:55;96873.19;;;1.75;70.44
12757;BME280;31601;48.042;12.240;2023-04-10T02:48:21;96871.28;;;1.66;70.65
12757;BME280;31601;48.042;12.240;2023-04-10T02:50:55;96873.50;;;1.59;71.11
12757;BME280;31601;48.042;12.240;2023-04-10T02:53:21;96869.72;;;1.52;70.66
12757;BME280;31601;48.042;12.240;2023-04-10T02:55:51;96870.75;;;1.50;71.01
12757;BME280;31601;48.042;12.240;2023-04-10T02:58:17;96870.13;;;1.35;71.54
12757;BME280;31601;48.042;12.240;2023-04-10T03:00:46;96869.50;;;1.31;71.90
12757;BME280;31601;48.042;12.240;2023-04-10T03:03:13;96870.38;;;1.19;71.52
12757;BME280;31601;48.042;12.240;2023-04-10T03:05:39;96872.41;;;1.27;71.46
12757;BME280;31601;48.042;12.240;2023-04-10T03:08:07;96868.22;;;1.37;71.21
12757;BME280;31601;48.042;12.240;2023-04-10T03:10:33;96868.47;;;1.34;70.99
12757;BME280;31601;48.042;12.240;2023-04-10T03:13:00;96873.03;;;1.30;70.82
12757;BME280;31601;48.042;12.240;2023-04-10T03:15:26;96871.00;;;1.22;70.71
12757;BME280;31601;48.042;12.240;2023-04-10T03:17:53;96866.03;;;1.19;70.54
12757;BME280;31601;48.042;12.240;2023-04-10T03:20:19;96867.56;;;1.22;70.88
12757;BME280;31601;48.042;12.240;2023-04-10T03:22:45;96865.59;;;1.25;70.89
12757;BME280;31601;48.042;12.240;2023-04-10T03:25:13;96875.09;;;1.25;70.72
12757;BME280;31601;48.042;12.240;2023-04-10T03:27:40;96870.16;;;1.22;70.44
12757;BME280;31601;48.042;12.240;2023-04-10T03:30:07;96864.16;;;1.21;70.66
12757;BME280;31601;48.042;12.240;2023-04-10T03:32:33;96863.13;;;1.24;70.72
12757;BME280;31601;48.042;12.240;2023-04-10T03:35:00;96864.66;;;1.27;70.57
12757;BME280;31601;48.042;12.240;2023-04-10T03:37:26;96862.69;;;1.30;70.56
12757;BME280;31601;48.042;12.240;2023-04-10T03:39:53;96866.31;;;1.28;70.48
12757;BME280;31601;48.042;12.240;2023-04-10T03:42:20;96863.25;;;1.22;70.37
12757;BME280;31601;48.042;12.240;2023-04-10T03:44:47;96859.91;;;1.20;70.28
12757;BME280;31601;48.042;12.240;2023-04-10T03:47:13;96868.66;;;0.82;71.40
12757;BME280;31601;48.042;12.240;2023-04-10T03:49:39;96863.09;;;0.63;72.28
12757;BME280;31601;48.042;12.240;2023-04-10T03:52:06;96864.91;;;0.86;71.63
12757;BME280;31601;48.042;12.240;2023-04-10T03:54:32;96865.28;;;0.56;71.79
12757;BME280;31601;48.042;12.240;2023-04-10T03:56:59;96868.97;;;0.78;71.39
12757;BME280;31601;48.042;12.240;2023-04-10T03:59:27;96863.97;;;0.87;71.12
12757;BME280;31601;48.042;12.240;2023-04-10T04:01:53;96855.78;;;0.94;71.00
12757;BME280;31601;48.042;12.240;2023-04-10T04:04:20;96860.03;;;0.95;70.94
12757;BME280;31601;48.042;12.240;2023-04-10T04:06:46;96866.63;;;0.99;70.62
12757;BME280;31601;48.042;12.240;2023-04-10T04:09:13;96868.00;;;0.79;70.85
12757;BME280;31601;48.042;12.240;2023-04-10T04:11:39;96872.38;;;0.78;71.10
12757;BME280;31601;48.042;12.240;2023-04-10T04:14:06;96865.75;;;0.74;71.29
12757;BME280;31601;48.042;12.240;2023-04-10T04:16:34;96869.47;;;0.83;71.38
12757;BME280;31601;48.042;12.240;2023-04-10T04:19:01;96874.19;;;0.89;71.24
12757;BME280;31601;48.042;12.240;2023-04-10T04:21:27;96873.28;;;0.90;71.33
12757;BME280;31601;48.042;12.240;2023-04-10T04:23:53;96874.59;;;0.96;71.34
12757;BME280;31601;48.042;12.240;2023-04-10T04:26:20;96875.00;;;1.02;71.06
12757;BME280;31601;48.042;12.240;2023-04-10T04:28:49;96874.88;;;1.04;71.24
12757;BME280;31601;48.042;12.240;2023-04-10T04:31:15;96872.53;;;1.01;71.17
12757;BME280;31601;48.042;12.240;2023-04-10T04:33:43;96878.19;;;1.06;71.23
12757;BME280;31601;48.042;12.240;2023-04-10T04:36:09;96877.38;;;1.05;71.23
12757;BME280;31601;48.042;12.240;2023-04-10T04:38:35;96874.88;;;1.04;71.11
12757;BME280;31601;48.042;12.240;2023-04-10T04:41:02;96878.41;;;1.03;70.84
12757;BME280;31601;48.042;12.240;2023-04-10T04:43:28;96879.22;;;1.03;70.99
12757;BME280;31601;48.042;12.240;2023-04-10T04:45:55;96880.97;;;1.03;70.79
12757;BME280;31601;48.042;12.240;2023-04-10T04:48:22;96887.59;;;1.07;70.89
12757;BME280;31601;48.042;12.240;2023-04-10T04:50:49;96889.97;;;1.10;71.05
12757;BME280;31601;48.042;12.240;2023-04-10T04:53:16;96889.13;;;1.10;71.11
12757;BME280;31601;48.042;12.240;2023-04-10T04:55:42;96892.25;;;1.02;70.96
12757;BME280;31601;48.042;12.240;2023-04-10T04:58:09;96888.63;;;1.04;71.11
12757;BME280;31601;48.042;12.240;2023-04-10T05:00:35;96889.22;;;1.08;71.55
12757;BME280;31601;48.042;12.240;2023-04-10T05:03:01;96891.88;;;1.19;70.97
12757;BME280;31601;48.042;12.240;2023-04-10T05:05:28;96887.69;;;1.30;71.44
12757;BME280;31601;48.042;12.240;2023-04-10T05:07:55;96892.09;;;1.40;71.28
12757;BME280;31601;48.042;12.240;2023-04-10T05:10:22;96895.09;;;1.47;71.12
12757;BME280;31601;48.042;12.240;2023-04-10T05:12:48;96892.75;;;1.55;70.98
12757;BME280;31601;48.042;12.240;2023-04-10T05:15:15;96899.38;;;1.59;71.35
12757;BME280;31601;48.042;12.240;2023-04-10T05:17:41;96891.41;;;1.74;70.88
12757;BME280;31601;48.042;12.240;2023-04-10T05:20:09;96899.66;;;1.79;70.90
12757;BME280;31601;48.042;12.240;2023-04-10T05:22:35;96890.06;;;1.92;70.52
12757;BME280;31601;48.042;12.240;2023-04-10T05:25:04;96899.16;;;1.98;70.57
12757;BME280;31601;48.042;12.240;2023-04-10T05:27:30;96892.31;;;1.97;70.04
12757;BME280;31601;48.042;12.240;2023-04-10T05:29:57;96889.41;;;2.13;69.78
12757;BME280;31601;48.042;12.240;2023-04-10T05:32:23;96895.31;;;2.15;69.55
12757;BME280;31601;48.042;12.240;2023-04-10T05:34:49;96899.53;;;2.16;69.28
12757;BME280;31601;48.042;12.240;2023-04-10T05:37:16;96908.72;;;2.20;69.20
12757;BME280;31601;48.042;12.240;2023-04-10T05:39:43;96906.94;;;2.21;69.07
12757;BME280;31601;48.042;12.240;2023-04-10T05:42:11;96916.50;;;2.31;68.94
12757;BME280;31601;48.042;12.240;2023-04-10T05:44:38;96916.25;;;2.23;68.06
12757;BME280;31601;48.042;12.240;2023-04-10T05:47:05;96908.16;;;2.28;66.82
12757;BME280;31601;48.042;12.240;2023-04-10T05:49:31;96911.28;;;2.09;67.07
12757;BME280;31601;48.042;12.240;2023-04-10T05:51:58;96922.81;;;2.16;67.42
12757;BME280;31601;48.042;12.240;2023-04-10T05:54:24;96919.78;;;2.22;67.61
12757;BME280;31601;48.042;12.240;2023-04-10T05:56:50;96920.03;;;2.30;67.60
12757;BME280;31601;48.042;12.240;2023-04-10T05:59:18;96920.50;;;2.36;67.66
12757;BME280;31601;48.042;12.240;2023-04-10T06:01:45;96918.19;;;2.55;67.87
12757;BME280;31601;48.042;12.240;2023-04-10T06:04:12;96919.81;;;2.56;67.68
12757;BME280;31601;48.042;12.240;2023-04-10T06:06:39;96913.34;;;2.62;67.83
12757;BME280;31601;48.042;12.240;2023-04-10T06:09:05;96920.78;;;2.66;67.80
12757;BME280;31601;48.042;12.240;2023-04-10T06:11:32;96913.22;;;2.75;68.20
12757;BME280;31601;48.042;12.240;2023-04-10T06:13:58;96915.00;;;2.97;68.51
12757;BME280;31601;48.042;12.240;2023-04-10T06:16:26;96922.41;;;2.90;69.21
12757;BME280;31601;48.042;12.240;2023-04-10T06:18:52;96915.91;;;3.07;68.99
12757;BME280;31601;48.042;12.240;2023-04-10T06:21:19;96917.19;;;3.35;68.65
12757;BME280;31601;48.042;12.240;2023-04-10T06:23:45;96911.06;;;3.25;68.90
12757;BME280;31601;48.042;12.240;2023-04-10T06:26:12;96916.78;;;3.51;68.76
12757;BME280;31601;48.042;12.240;2023-04-10T06:28:38;96919.06;;;3.45;69.44
12757;BME280;31601;48.042;12.240;2023-04-10T06:31:05;96917.56;;;3.63;69.09
12757;BME280;31601;48.042;12.240;2023-04-10T06:33:33;96914.00;;;3.75;69.65
12757;BME280;31601;48.042;12.240;2023-04-10T06:36:00;96917.59;;;3.84;69.64
12757;BME280;31601;48.042;12.240;2023-04-10T06:38:28;96913.88;;;3.98;69.12
12757;BME280;31601;48.042;12.240;2023-04-10T06:40:54;96907.78;;;4.09;69.02
12757;BME280;31601;48.042;12.240;2023-04-10T06:43:20;96907.75;;;4.20;68.72
12757;BME280;31601;48.042;12.240;2023-04-10T06:45:47;96904.19;;;4.21;68.39
12757;BME280;31601;48.042;12.240;2023-04-10T06:48:13;96897.44;;;4.61;68.02
12757;BME280;31601;48.042;12.240;2023-04-10T06:50:41;96901.19;;;4.78;67.60
12757;BME280;31601;48.042;12.240;2023-04-10T06:53:07;96898.00;;;5.05;67.11
12757;BME280;31601;48.042;12.240;2023-04-10T06:55:34;96896.84;;;5.29;67.03
12757;BME280;31601;48.042;12.240;2023-04-10T06:58:01;96900.53;;;5.36;67.08
12757;BME280;31601;48.042;12.240;2023-04-10T07:00:29;96900.28;;;5.68;66.73
12757;BME280;31601;48.042;12.240;2023-04-10T07:02:55;96902.75;;;5.89;66.22
12757;BME280;31601;48.042;12.240;2023-04-10T07:05:22;96903.28;;;5.93;65.90
12757;BME280;31601;48.042;12.240;2023-04-10T07:07:50;96895.91;;;6.18;65.85
12757;BME280;31601;48.042;12.240;2023-04-10T07:10:16;96895.97;;;6.45;65.02
12757;BME280;31601;48.042;12.240;2023-04-10T07:12:43;96901.31;;;6.44;64.03
12757;BME280;31601;48.042;12.240;2023-04-10T07:15:09;96895.94;;;6.93;63.61
12757;BME280;31601;48.042;12.240;2023-04-10T07:17:36;96881.78;;;7.23;62.47
12757;BME280;31601;48.042;12.240;2023-04-10T07:20:04;96886.59;;;7.64;62.05
12757;BME280;31601;48.042;12.240;2023-04-10T07:22:30;96885.09;;;7.97;61.55
12757;BME280;31601;48.042;12.240;2023-04-10T07:24:58;96878.00;;;8.34;60.44
12757;BME280;31601;48.042;12.240;2023-04-10T07:27:25;96882.94;;;8.63;60.00
12757;BME280;31601;48.042;12.240;2023-04-10T07:29:53;96876.94;;;8.71;59.56
12757;BME280;31601;48.042;12.240;2023-04-10T07:32:20;96877.50;;;8.56;59.39
12757;BME280;31601;48.042;12.240;2023-04-10T07:34:47;96869.66;;;8.91;58.92
12757;BME280;31601;48.042;12.240;2023-04-10T07:37:13;96868.94;;;9.15;57.77
12757;BME280;31601;48.042;12.240;2023-04-10T07:39:40;96868.38;;;9.54;57.22
12757;BME280;31601;48.042;12.240;2023-04-10T07:42:09;96868.72;;;9.92;56.43
12757;BME280;31601;48.042;12.240;2023-04-10T07:44:36;96867.94;;;9.92;56.47
12757;BME280;31601;48.042;12.240;2023-04-10T07:47:02;96864.78;;;9.55;56.82
12757;BME280;31601;48.042;12.240;2023-04-10T07:49:28;96858.41;;;9.66;57.33
12757;BME280;31601;48.042;12.240;2023-04-10T07:51:55;96857.25;;;10.10;55.89
12757;BME280;31601;48.042;12.240;2023-04-10T07:54:21;96857.25;;;10.10;55.71
12757;BME280;31601;48.042;12.240;2023-04-10T07:56:50;96864.97;;;9.95;56.17
12757;BME280;31601;48.042;12.240;2023-04-10T07:59:18;96854.81;;;10.00;55.06
12757;BME280;31601;48.042;12.240;2023-04-10T08:01:44;96855.28;;;10.20;55.39
12757;BME280;31601;48.042;12.240;2023-04-10T08:04:11;96850.19;;;10.18;54.82
12757;BME280;31601;48.042;12.240;2023-04-10T08:06:37;96844.63;;;10.46;54.45
12757;BME280;31601;48.042;12.240;2023-04-10T08:09:04;96851.53;;;10.23;53.46
12757;BME280;31601;48.042;12.240;2023-04-10T08:11:31;96854.94;;;10.23;54.09
12757;BME280;31601;48.042;12.240;2023-04-10T08:13:59;96858.72;;;10.37;53.51
12757;BME280;31601;48.042;12.240;2023-04-10T08:16:29;96857.59;;;10.39;53.92
12757;BME280;31601;48.042;12.240;2023-04-10T08:18:56;96858.88;;;10.19;53.50
12757;BME280;31601;48.042;12.240;2023-04-10T08:21:23;96857.78;;;10.78;53.70
12757;BME280;31601;48.042;12.240;2023-04-10T08:23:52;96852.63;;;11.01;52.39
12757;BME280;31601;48.042;12.240;2023-04-10T08:26:18;96856.28;;;10.91;52.55
12757;BME280;31601;48.042;12.240;2023-04-10T08:28:46;96867.44;;;11.25;52.34
12757;BME280;31601;48.042;12.240;2023-04-10T08:31:14;96862.03;;;11.26;50.34
12757;BME280;31601;48.042;12.240;2023-04-10T08:33:42;96858.09;;;11.22;49.57
12757;BME280;31601;48.042;12.240;2023-04-10T08:36:09;96862.09;;;11.41;49.91
12757;BME280;31601;48.042;12.240;2023-04-10T08:38:37;96860.44;;;11.17;48.61
12757;BME280;31601;48.042;12.240;2023-04-10T08:41:03;96855.69;;;11.44;49.87
12757;BME280;31601;48.042;12.240;2023-04-10T08:43:30;96861.84;;;11.28;49.58
12757;BME280;31601;48.042;12.240;2023-04-10T08:45:57;96858.75;;;11.47;49.51
12757;BME280;31601;48.042;12.240;2023-04-10T08:48:30;96855.41;;;11.62;48.81
12757;BME280;31601;48.042;12.240;2023-04-10T08:50:59;96851.31;;;12.06;48.39
12757;BME280;31601;48.042;12.240;2023-04-10T08:53:29;96857.53;;;11.58;48.69
12757;BME280;31601;48.042;12.240;2023-04-10T08:55:56;96855.69;;;11.90;48.40
12757;BME280;31601;48.042;12.240;2023-04-10T08:58:23;96851.22;;;11.91;48.08
12757;BME280;31601;48.042;12.240;2023-04-10T09:00:50;96852.28;;;11.58;47.82
12757;BME280;31601;48.042;12.240;2023-04-10T09:03:16;96854.19;;;11.73;47.60
12757;BME280;31601;48.042;12.240;2023-04-10T09:05:43;96845.59;;;11.79;47.84
12757;BME280;31601;48.042;12.240;2023-04-10T09:08:13;96857.53;;;11.58;48.72
12757;BME280;31601;48.042;12.240;2023-04-10T09:10:40;96845.16;;;11.44;47.51
12757;BME280;31601;48.042;12.240;2023-04-10T09:13:06;96844.34;;;11.43;48.47
12757;BME280;31601;48.042;12.240;2023-04-10T09:15:54;96847.00;;;11.67;47.16
12757;BME280;31601;48.042;12.240;2023-04-10T09:18:21;96839.69;;;11.54;47.42
12757;BME280;31601;48.042;12.240;2023-04-10T09:20:47;96831.41;;;11.42;47.42
12757;BME280;31601;48.042;12.240;2023-04-10T09:23:20;96838.88;;;11.53;47.50
12757;BME280;31601;48.042;12.240;2023-04-10T09:25:47;96844.94;;;11.54;46.93
12757;BME280;31601;48.042;12.240;2023-04-10T09:28:13;96831.84;;;12.15;45.92
12757;BME280;31601;48.042;12.240;2023-04-10T09:30:41;96830.63;;;11.79;46.39
12757;BME280;31601;48.042;12.240;2023-04-10T09:33:20;96824.03;;;12.07;46.98
12757;BME280;31601;48.042;12.240;2023-04-10T09:35:47;96825.00;;;11.82;44.75
12757;BME280;31601;48.042;12.240;2023-04-10T09:38:14;96815.06;;;12.16;46.09
12757;BME280;31601;48.042;12.240;2023-04-10T09:40:44;96814.34;;;12.22;45.49
12757;BME280;31601;48.042;12.240;2023-04-10T09:43:20;96808.38;;;12.58;44.08
12757;BME280;31601;48.042;12.240;2023-04-10T09:45:49;96815.63;;;12.41;44.08
12757;BME280;31601;48.042;12.240;2023-04-10T09:48:16;96803.47;;;12.40;43.50
12757;BME280;31601;48.042;12.240;2023-04-10T09:50:42;96804.28;;;12.41;44.75
12757;BME280;31601;48.042;12.240;2023-04-10T09:53:09;96800.00;;;12.10;43.82
12757;BME280;31601;48.042;12.240;2023-04-10T09:55:36;96804.53;;;12.31;44.28
12757;BME280;31601;48.042;12.240;2023-04-10T09:58:05;96795.75;;;12.68;44.45
12757;BME280;31601;48.042;12.240;2023-04-10T10:00:36;96793.41;;;12.44;44.47
12757;BME280;31601;48.042;12.240;2023-04-10T10:03:07;96787.94;;;12.75;43.33
12757;BME280;31601;48.042;12.240;2023-04-10T10:05:34;96781.59;;;12.40;44.45
12757;BME280;31601;48.042;12.240;2023-04-10T10:08:01;96771.34;;;12.45;43.39
12757;BME280;31601;48.042;12.240;2023-04-10T10:10:29;96771.63;;;12.50;43.94
12757;BME280;31601;48.042;12.240;2023-04-10T10:12:58;96778.03;;;12.77;43.12
12757;BME280;31601;48.042;12.240;2023-04-10T10:15:31;96765.88;;;13.13;41.95
12757;BME280;31601;48.042;12.240;2023-04-10T10:18:03;96771.81;;;13.36;40.43
12757;BME280;31601;48.042;12.240;2023-04-10T10:20:33;96758.25;;;13.61;40.73
12757;BME280;31601;48.042;12.240;2023-04-10T10:23:01;96763.19;;;13.28;41.31
12757;BME280;31601;48.042;12.240;2023-04-10T10:25:28;96757.34;;;13.32;41.49
12757;BME280;31601;48.042;12.240;2023-04-10T10:27:59;96759.34;;;13.08;41.08
12757;BME280;31601;48.042;12.240;2023-04-10T10:30:30;96750.81;;;13.06;41.01
12757;BME280;31601;48.042;12.240;2023-04-10T10:32:57;96756.88;;;13.43;40.60
12757;BME280;31601;48.042;12.240;2023-04-10T10:35:25;96745.69;;;13.63;40.82
12757;BME280;31601;48.042;12.240;2023-04-10T10:37:51;96738.69;;;14.05;40.25
12757;BME280;31601;48.042;12.240;2023-04-10T10:40:22;96743.44;;;13.60;40.70
12757;BME280;31601;48.042;12.240;2023-04-10T10:42:56;96744.31;;;13.95;39.74
12757;BME280;31601;48.042;12.240;2023-04-10T10:45:32;96735.53;;;14.17;40.54
12757;BME280;31601;48.042;12.240;2023-04-10T10:47:59;96736.72;;;14.14;41.02
12757;BME280;31601;48.042;12.240;2023-04-10T10:50:49;96732.84;;;13.82;39.52
12757;BME280;31601;48.042;12.240;2023-04-10T10:53:30;96723.50;;;13.51;39.35
12757;BME280;31601;48.042;12.240;2023-04-10T10:55:56;96730.00;;;13.76;41.63
12757;BME280;31601;48.042;12.240;2023-04-10T10:58:44;96724.41;;;13.93;41.01
12757;BME280;31601;48.042;12.240;2023-04-10T11:01:13;96722.53;;;14.57;39.84
12757;BME280;31601;48.042;12.240;2023-04-10T11:03:39;96723.84;;;14.32;39.19
12757;BME280;31601;48.042;12.240;2023-04-10T11:06:09;96715.94;;;14.39;39.87
12757;BME280;31601;48.042;12.240;2023-04-10T11:08:39;96704.16;;;14.77;40.46
12757;BME280;31601;48.042;12.240;2023-04-10T11:11:09;96707.03;;;14.47;38.35
12757;BME280;31601;48.042;12.240;2023-04-10T11:13:37;96702.59;;;14.06;38.69
12757;BME280;31601;48.042;12.240;2023-04-10T11:16:06;96698.22;;;13.91;39.60
12757;BME280;31601;48.042;12.240;2023-04-10T11:19:02;96698.44;;;14.25;40.04
12757;BME280;31601;48.042;12.240;2023-04-10T11:21:29;96692.81;;;14.41;39.27
12757;BME280;31601;48.042;12.240;2023-04-10T11:24:04;96684.44;;;14.79;38.61
12757;BME280;31601;48.042;12.240;2023-04-10T11:26:38;96668.88;;;15.04;37.72
12757;BME280;31601;48.042;12.240;2023-04-10T11:29:06;96665.59;;;14.96;36.21
12757;BME280;31601;48.042;12.240;2023-04-10T11:31:54;96658.03;;;14.79;37.00
12757;BME280;31601;48.042;12.240;2023-04-10T11:34:23;96661.53;;;15.00;36.33
12757;BME280;31601;48.042;12.240;2023-04-10T11:36:51;96665.22;;;15.12;35.80
12757;BME280;31601;48.042;12.240;2023-04-10T11:39:17;96658.25;;;14.91;34.92
12757;BME280;31601;48.042;12.240;2023-04-10T11:41:45;96657.88;;;14.94;36.00
12757;BME280;31601;48.042;12.240;2023-04-10T11:44:14;96660.56;;;14.53;36.22
12757;BME280;31601;48.042;12.240;2023-04-10T11:46:41;96652.94;;;14.64;34.42
12757;BME280;31601;48.042;12.240;2023-04-10T11:49:09;96644.22;;;14.77;35.81
12757;BME280;31601;48.042;12.240;2023-04-10T11:51:38;96650.84;;;14.60;34.87
12757;BME280;31601;48.042;12.240;2023-04-10T11:54:06;96637.81;;;14.45;35.21
12757;BME280;31601;48.042;12.240;2023-04-10T11:56:34;96633.47;;;14.99;34.82
12757;BME280;31601;48.042;12.240;2023-04-10T11:59:01;96635.50;;;14.83;34.16
12757;BME280;31601;48.042;12.240;2023-04-10T12:01:31;96633.06;;;14.75;34.77
12757;BME280;31601;48.042;12.240;2023-04-10T12:03:58;96625.38;;;15.14;31.57
12757;BME280;31601;48.042;12.240;2023-04-10T12:06:26;96624.22;;;14.55;34.35
12757;BME280;31601;48.042;12.240;2023-04-10T12:08:54;96622.06;;;14.65;34.61
12757;BME280;31601;48.042;12.240;2023-04-10T12:11:22;96622.31;;;14.28;34.62
12757;BME280;31601;48.042;12.240;2023-04-10T12:13:51;96619.13;;;14.46;35.67
12757;BME280;31601;48.042;12.240;2023-04-10T12:16:17;96625.69;;;14.64;33.58
12757;BME280;31601;48.042;12.240;2023-04-10T12:18:44;96617.53;;;14.52;33.48
12757;BME280;31601;48.042;12.240;2023-04-10T12:21:11;96622.88;;;14.17;33.60
12757;BME280;31601;48.042;12.240;2023-04-10T12:23:38;96622.22;;;14.08;33.71
12757;BME280;31601;48.042;12.240;2023-04-10T12:26:08;96616.88;;;14.50;35.38
12757;BME280;31601;48.042;12.240;2023-04-10T12:28:36;96612.66;;;14.56;34.55
12757;BME280;31601;48.042;12.240;2023-04-10T12:31:03;96606.38;;;14.57;33.72
12757;BME280;31601;48.042;12.240;2023-04-10T12:33:29;96602.28;;;14.47;34.17
12757;BME280;31601;48.042;12.240;2023-04-10T12:35:56;96605.13;;;14.53;33.46
12757;BME280;31601;48.042;12.240;2023-04-10T12:38:40;96596.59;;;14.57;33.15
12757;BME280;31601;48.042;12.240;2023-04-10T12:41:09;96591.88;;;14.26;32.68
12757;BME280;31601;48.042;12.240;2023-04-10T12:43:37;96600.84;;;14.51;34.30
12757;BME280;31601;48.042;12.240;2023-04-10T12:46:05;96591.88;;;14.32;34.17
12757;BME280;31601;48.042;12.240;2023-04-10T12:48:32;96590.94;;;14.54;34.71
12757;BME280;31601;48.042;12.240;2023-04-10T12:50:59;96580.44;;;14.94;34.35
12757;BME280;31601;48.042;12.240;2023-04-10T12:53:25;96591.94;;;14.59;33.12
12757;BME280;31601;48.042;12.240;2023-04-10T12:56:00;96590.16;;;14.66;34.02
12757;BME280;31601;48.042;12.240;2023-04-10T12:58:28;96583.84;;;14.61;34.55
12757;BME280;31601;48.042;12.240;2023-04-10T13:00:56;96579.72;;;14.38;34.93
12757;BME280;31601;48.042;12.240;2023-04-10T13:03:23;96581.44;;;14.66;34.97